sensor_id;sensor_type;location;lat;lon;timestamp;P1;durP1;ratioP1;P2;durP2;ratioP2
77890;SDS011;67084;43.624;3.876;2024-01-16T00:01:47;17.90;;;16.48;;
77890;SDS011;67084;43.624;3.876;2024-01-16T00:04:13;9.48;;;8.35;;
77890;SDS011;67084;43.624;3.876;2024-01-16T00:06:42;18.05;;;16.63;;
77890;SDS011;67084;43.624;3.876;2024-01-16T00:09:08;18.10;;;16.65;;
77890;SDS011;67084;43.624;3.876;2024-01-16T00:11:40;17.05;;;15.65;;
77890;SDS011;67084;43.624;3.876;2024-01-16T00:14:06;15.77;;;14.48;;
77890;SDS011;67084;43.624;3.876;2024-01-16T00:16:32;16.45;;;15.15;;
77890;SDS011;67084;43.624;3.876;2024-01-16T00:18:58;18.15;;;16.83;;
77890;SDS011;67084;43.624;3.876;2024-01-16T00:21:24;16.95;;;15.65;;
77890;SDS011;67084;43.624;3.876;2024-01-16T00:23:50;17.73;;;16.40;;
77890;SDS011;67084;43.624;3.876;2024-01-16T00:26:20;15.80;;;14.63;;
77890;SDS011;67084;43.624;3.876;2024-01-16T00:28:46;14.48;;;13.25;;
77890;SDS011;67084;43.624;3.876;2024-01-16T00:31:12;9.38;;;8.38;;
77890;SDS011;67084;43.624;3.876;2024-01-16T00:33:38;16.27;;;14.98;;
77890;SDS011;67084;43.624;3.876;2024-01-16T00:36:05;17.27;;;15.85;;
77890;SDS011;67084;43.624;3.876;2024-01-16T00:38:34;14.80;;;13.48;;
77890;SDS011;67084;43.624;3.876;2024-01-16T00:41:00;16.48;;;14.95;;
77890;SDS011;67084;43.624;3.876;2024-01-16T00:43:26;16.08;;;14.77;;
77890;SDS011;67084;43.624;3.876;2024-01-16T00:45:52;13.80;;;12.63;;
77890;SDS011;67084;43.624;3.876;2024-01-16T00:48:19;14.82;;;13.52;;
77890;SDS011;67084;43.624;3.876;2024-01-16T00:50:46;22.05;;;20.33;;
77890;SDS011;67084;43.624;3.876;2024-01-16T00:53:15;18.65;;;17.05;;
77890;SDS011;67084;43.624;3.876;2024-01-16T00:55:41;19.52;;;17.92;;
77890;SDS011;67084;43.624;3.876;2024-01-16T00:58:07;16.45;;;14.85;;
77890;SDS011;67084;43.624;3.876;2024-01-16T01:00:33;18.10;;;16.58;;
77890;SDS011;67084;43.624;3.876;2024-01-16T01:03:02;15.38;;;14.07;;
77890;SDS011;67084;43.624;3.876;2024-01-16T01:05:28;9.73;;;8.70;;
77890;SDS011;67084;43.624;3.876;2024-01-16T01:07:55;16.55;;;15.15;;
77890;SDS011;67084;43.624;3.876;2024-01-16T01:10:21;13.95;;;12.75;;
77890;SDS011;67084;43.624;3.876;2024-01-16T01:12:47;15.25;;;13.80;;
77890;SDS011;67084;43.624;3.876;2024-01-16T01:15:13;17.55;;;16.15;;
77890;SDS011;67084;43.624;3.876;2024-01-16T01:17:40;16.02;;;14.65;;
77890;SDS011;67084;43.624;3.876;2024-01-16T01:20:06;15.48;;;14.18;;
77890;SDS011;67084;43.624;3.876;2024-01-16T01:22:32;19.15;;;17.65;;
77890;SDS011;67084;43.624;3.876;2024-01-16T01:24:58;12.85;;;11.23;;
77890;SDS011;67084;43.624;3.876;2024-01-16T01:27:25;19.30;;;17.65;;
77890;SDS011;67084;43.624;3.876;2024-01-16T01:29:51;17.30;;;15.90;;
77890;SDS011;67084;43.624;3.876;2024-01-16T01:32:17;19.35;;;17.63;;
77890;SDS011;67084;43.624;3.876;2024-01-16T01:34:43;17.40;;;16.00;;
77890;SDS011;67084;43.624;3.876;2024-01-16T01:37:09;15.50;;;14.20;;
77890;SDS011;67084;43.624;3.876;2024-01-16T01:39:35;18.13;;;16.67;;
77890;SDS011;67084;43.624;3.876;2024-01-16T01:42:01;18.50;;;17.05;;
77890;SDS011;67084;43.624;3.876;2024-01-16T01:44:27;11.13;;;10.02;;
77890;SDS011;67084;43.624;3.876;2024-01-16T01:46:54;17.98;;;16.48;;
77890;SDS011;67084;43.624;3.876;2024-01-16T01:49:20;16.70;;;15.32;;
77890;SDS011;67084;43.624;3.876;2024-01-16T01:51:47;17.17;;;15.88;;
77890;SDS011;67084;43.624;3.876;2024-01-16T01:54:14;16.67;;;15.27;;
77890;SDS011;67084;43.624;3.876;2024-01-16T01:56:44;14.93;;;13.63;;
77890;SDS011;67084;43.624;3.876;2024-01-16T01:59:10;18.25;;;16.75;;
77890;SDS011;67084;43.624;3.876;2024-01-16T02:01:37;10.48;;;9.38;;
77890;SDS011;67084;43.624;3.876;2024-01-16T02:04:03;12.32;;;10.85;;
77890;SDS011;67084;43.624;3.876;2024-01-16T02:06:30;17.92;;;16.33;;
77890;SDS011;67084;43.624;3.876;2024-01-16T02:08:56;15.32;;;13.95;;
77890;SDS011;67084;43.624;3.876;2024-01-16T02:11:22;15.52;;;14.05;;
77890;SDS011;67084;43.624;3.876;2024-01-16T02:13:48;17.10;;;15.50;;
77890;SDS011;67084;43.624;3.876;2024-01-16T02:16:18;21.38;;;19.55;;
77890;SDS011;67084;43.624;3.876;2024-01-16T02:18:44;16.52;;;15.00;;
77890;SDS011;67084;43.624;3.876;2024-01-16T02:21:10;12.27;;;11.07;;
77890;SDS011;67084;43.624;3.876;2024-01-16T02:23:37;16.27;;;14.90;;
77890;SDS011;67084;43.624;3.876;2024-01-16T02:26:03;16.83;;;15.43;;
77890;SDS011;67084;43.624;3.876;2024-01-16T02:28:30;15.80;;;14.40;;
77890;SDS011;67084;43.624;3.876;2024-01-16T02:30:56;17.13;;;15.75;;
77890;SDS011;67084;43.624;3.876;2024-01-16T02:33:22;17.40;;;15.90;;
77890;SDS011;67084;43.624;3.876;2024-01-16T02:35:48;10.38;;;9.38;;
77890;SDS011;67084;43.624;3.876;2024-01-16T02:38:14;16.52;;;14.95;;
77890;SDS011;67084;43.624;3.876;2024-01-16T02:40:40;21.38;;;19.70;;
77890;SDS011;67084;43.624;3.876;2024-01-16T02:43:06;15.13;;;13.82;;
77890;SDS011;67084;43.624;3.876;2024-01-16T02:45:32;12.15;;;10.93;;
77890;SDS011;67084;43.624;3.876;2024-01-16T02:47:58;18.27;;;16.95;;
77890;SDS011;67084;43.624;3.876;2024-01-16T02:50:25;14.82;;;13.63;;
77890;SDS011;67084;43.624;3.876;2024-01-16T02:52:51;7.30;;;6.60;;
77890;SDS011;67084;43.624;3.876;2024-01-16T02:55:17;16.73;;;15.43;;
77890;SDS011;67084;43.624;3.876;2024-01-16T02:57:43;14.13;;;12.93;;
77890;SDS011;67084;43.624;3.876;2024-01-16T03:00:09;17.48;;;16.00;;
77890;SDS011;67084;43.624;3.876;2024-01-16T03:02:36;16.65;;;15.20;;
77890;SDS011;67084;43.624;3.876;2024-01-16T03:05:03;14.73;;;13.63;;
77890;SDS011;67084;43.624;3.876;2024-01-16T03:07:30;14.40;;;13.20;;
77890;SDS011;67084;43.624;3.876;2024-01-16T03:09:56;15.20;;;13.88;;
77890;SDS011;67084;43.624;3.876;2024-01-16T03:12:22;15.35;;;14.25;;
77890;SDS011;67084;43.624;3.876;2024-01-16T03:14:48;10.93;;;10.02;;
77890;SDS011;67084;43.624;3.876;2024-01-16T03:17:14;13.63;;;12.52;;
77890;SDS011;67084;43.624;3.876;2024-01-16T03:19:41;8.10;;;7.40;;
77890;SDS011;67084;43.624;3.876;2024-01-16T03:22:08;18.52;;;17.23;;
77890;SDS011;67084;43.624;3.876;2024-01-16T03:24:34;13.77;;;12.77;;
77890;SDS011;67084;43.624;3.876;2024-01-16T03:27:00;9.88;;;8.98;;
77890;SDS011;67084;43.624;3.876;2024-01-16T03:29:26;15.52;;;14.43;;
77890;SDS011;67084;43.624;3.876;2024-01-16T03:31:53;15.73;;;14.52;;
77890;SDS011;67084;43.624;3.876;2024-01-16T03:34:19;15.93;;;14.73;;
77890;SDS011;67084;43.624;3.876;2024-01-16T03:36:45;15.95;;;14.70;;
77890;SDS011;67084;43.624;3.876;2024-01-16T03:39:11;15.23;;;14.05;;
77890;SDS011;67084;43.624;3.876;2024-01-16T03:41:37;9.27;;;8.48;;
77890;SDS011;67084;43.624;3.876;2024-01-16T03:44:03;16.40;;;15.23;;
77890;SDS011;67084;43.624;3.876;2024-01-16T03:46:29;10.63;;;9.82;;
77890;SDS011;67084;43.624;3.876;2024-01-16T03:48:55;13.35;;;12.35;;
77890;SDS011;67084;43.624;3.876;2024-01-16T03:51:21;8.95;;;8.15;;
77890;SDS011;67084;43.624;3.876;2024-01-16T03:53:47;10.07;;;7.72;;
77890;SDS011;67084;43.624;3.876;2024-01-16T03:56:14;18.40;;;16.95;;
77890;SDS011;67084;43.624;3.876;2024-01-16T03:58:41;17.70;;;16.27;;
77890;SDS011;67084;43.624;3.876;2024-01-16T04:01:07;9.80;;;8.88;;
77890;SDS011;67084;43.624;3.876;2024-01-16T04:03:33;9.75;;;8.85;;
77890;SDS011;67084;43.624;3.876;2024-01-16T04:06:03;14.75;;;13.65;;
77890;SDS011;67084;43.624;3.876;2024-01-16T04:08:29;15.27;;;14.18;;
77890;SDS011;67084;43.624;3.876;2024-01-16T04:10:56;11.27;;;10.27;;
77890;SDS011;67084;43.624;3.876;2024-01-16T04:13:22;6.95;;;6.35;;
77890;SDS011;67084;43.624;3.876;2024-01-16T04:15:48;13.75;;;12.65;;
77890;SDS011;67084;43.624;3.876;2024-01-16T04:18:14;8.10;;;7.30;;
77890;SDS011;67084;43.624;3.876;2024-01-16T04:20:40;10.35;;;9.45;;
77890;SDS011;67084;43.624;3.876;2024-01-16T04:23:06;8.85;;;8.07;;
77890;SDS011;67084;43.624;3.876;2024-01-16T04:25:32;8.55;;;7.75;;
77890;SDS011;67084;43.624;3.876;2024-01-16T04:27:58;16.17;;;15.07;;
77890;SDS011;67084;43.624;3.876;2024-01-16T04:30:24;16.02;;;14.75;;
77890;SDS011;67084;43.624;3.876;2024-01-16T04:32:50;8.40;;;7.60;;
77890;SDS011;67084;43.624;3.876;2024-01-16T04:35:16;14.23;;;13.13;;
77890;SDS011;67084;43.624;3.876;2024-01-16T04:37:42;12.95;;;11.95;;
77890;SDS011;67084;43.624;3.876;2024-01-16T04:40:08;15.38;;;14.07;;
77890;SDS011;67084;43.624;3.876;2024-01-16T04:42:34;10.07;;;9.05;;
77890;SDS011;67084;43.624;3.876;2024-01-16T04:45:00;16.67;;;15.40;;
77890;SDS011;67084;43.624;3.876;2024-01-16T04:47:26;16.65;;;15.20;;
77890;SDS011;67084;43.624;3.876;2024-01-16T04:49:52;15.95;;;14.65;;
77890;SDS011;67084;43.624;3.876;2024-01-16T04:52:18;16.00;;;14.75;;
77890;SDS011;67084;43.624;3.876;2024-01-16T04:54:44;16.95;;;15.77;;
77890;SDS011;67084;43.624;3.876;2024-01-16T04:57:10;8.90;;;8.10;;
77890;SDS011;67084;43.624;3.876;2024-01-16T04:59:37;15.15;;;13.93;;
77890;SDS011;67084;43.624;3.876;2024-01-16T05:02:03;15.27;;;14.07;;
77890;SDS011;67084;43.624;3.876;2024-01-16T05:04:29;10.50;;;9.57;;
77890;SDS011;67084;43.624;3.876;2024-01-16T05:06:55;13.10;;;12.10;;
77890;SDS011;67084;43.624;3.876;2024-01-16T05:09:21;10.38;;;9.48;;
77890;SDS011;67084;43.624;3.876;2024-01-16T05:11:47;15.85;;;14.65;;
77890;SDS011;67084;43.624;3.876;2024-01-16T05:14:14;17.10;;;15.90;;
77890;SDS011;67084;43.624;3.876;2024-01-16T05:16:40;18.27;;;16.77;;
77890;SDS011;67084;43.624;3.876;2024-01-16T05:19:06;9.48;;;8.55;;
77890;SDS011;67084;43.624;3.876;2024-01-16T05:21:32;9.05;;;8.25;;
77890;SDS011;67084;43.624;3.876;2024-01-16T05:23:58;15.65;;;14.35;;
77890;SDS011;67084;43.624;3.876;2024-01-16T05:26:24;7.95;;;7.15;;
77890;SDS011;67084;43.624;3.876;2024-01-16T05:28:50;13.90;;;12.80;;
77890;SDS011;67084;43.624;3.876;2024-01-16T05:31:17;17.80;;;16.50;;
77890;SDS011;67084;43.624;3.876;2024-01-16T05:33:44;16.52;;;15.23;;
77890;SDS011;67084;43.624;3.876;2024-01-16T05:36:10;10.60;;;9.52;;
77890;SDS011;67084;43.624;3.876;2024-01-16T05:38:36;16.25;;;14.95;;
77890;SDS011;67084;43.624;3.876;2024-01-16T05:41:02;16.48;;;15.18;;
77890;SDS011;67084;43.624;3.876;2024-01-16T05:43:28;14.50;;;13.25;;
77890;SDS011;67084;43.624;3.876;2024-01-16T05:45:55;18.23;;;16.50;;
77890;SDS011;67084;43.624;3.876;2024-01-16T05:48:21;17.50;;;15.90;;
77890;SDS011;67084;43.624;3.876;2024-01-16T05:50:47;15.88;;;14.35;;
77890;SDS011;67084;43.624;3.876;2024-01-16T05:53:13;12.68;;;9.63;;
77890;SDS011;67084;43.624;3.876;2024-01-16T05:55:39;16.92;;;15.50;;
77890;SDS011;67084;43.624;3.876;2024-01-16T05:58:05;17.55;;;15.85;;
77890;SDS011;67084;43.624;3.876;2024-01-16T06:00:31;16.50;;;15.05;;
77890;SDS011;67084;43.624;3.876;2024-01-16T06:02:59;12.85;;;11.32;;
77890;SDS011;67084;43.624;3.876;2024-01-16T06:05:25;16.92;;;15.30;;
77890;SDS011;67084;43.624;3.876;2024-01-16T06:07:51;12.20;;;9.82;;
77890;SDS011;67084;43.624;3.876;2024-01-16T06:10:17;17.48;;;15.73;;
77890;SDS011;67084;43.624;3.876;2024-01-16T06:12:43;17.83;;;16.15;;
77890;SDS011;67084;43.624;3.876;2024-01-16T06:15:09;19.58;;;17.77;;
77890;SDS011;67084;43.624;3.876;2024-01-16T06:17:36;17.17;;;15.63;;
77890;SDS011;67084;43.624;3.876;2024-01-16T06:20:02;14.70;;;9.75;;
77890;SDS011;67084;43.624;3.876;2024-01-16T06:22:29;18.63;;;16.90;;
77890;SDS011;67084;43.624;3.876;2024-01-16T06:24:55;18.88;;;17.02;;
77890;SDS011;67084;43.624;3.876;2024-01-16T06:27:21;22.42;;;20.30;;
77890;SDS011;67084;43.624;3.876;2024-01-16T06:29:48;17.40;;;11.77;;
77890;SDS011;67084;43.624;3.876;2024-01-16T06:32:16;18.95;;;16.95;;
77890;SDS011;67084;43.624;3.876;2024-01-16T06:34:42;19.52;;;17.70;;
77890;SDS011;67084;43.624;3.876;2024-01-16T06:37:08;16.08;;;10.27;;
77890;SDS011;67084;43.624;3.876;2024-01-16T06:39:34;18.15;;;16.35;;
77890;SDS011;67084;43.624;3.876;2024-01-16T06:42:01;18.63;;;16.77;;
77890;SDS011;67084;43.624;3.876;2024-01-16T06:44:29;18.38;;;16.63;;
77890;SDS011;67084;43.624;3.876;2024-01-16T06:46:55;19.48;;;17.60;;
77890;SDS011;67084;43.624;3.876;2024-01-16T06:49:21;18.73;;;16.88;;
77890;SDS011;67084;43.624;3.876;2024-01-16T06:51:47;14.23;;;12.73;;
77890;SDS011;67084;43.624;3.876;2024-01-16T06:54:13;17.35;;;15.52;;
77890;SDS011;67084;43.624;3.876;2024-01-16T06:56:39;18.73;;;16.95;;
77890;SDS011;67084;43.624;3.876;2024-01-16T06:59:05;19.80;;;17.48;;
77890;SDS011;67084;43.624;3.876;2024-01-16T07:01:31;21.38;;;19.25;;
77890;SDS011;67084;43.624;3.876;2024-01-16T07:03:57;20.77;;;18.63;;
77890;SDS011;67084;43.624;3.876;2024-01-16T07:06:23;21.05;;;18.85;;
77890;SDS011;67084;43.624;3.876;2024-01-16T07:08:49;21.30;;;19.20;;
77890;SDS011;67084;43.624;3.876;2024-01-16T07:11:16;21.50;;;19.30;;
77890;SDS011;67084;43.624;3.876;2024-01-16T07:13:43;20.02;;;18.00;;
77890;SDS011;67084;43.624;3.876;2024-01-16T07:16:09;22.17;;;19.92;;
77890;SDS011;67084;43.624;3.876;2024-01-16T07:18:36;22.98;;;20.58;;
77890;SDS011;67084;43.624;3.876;2024-01-16T07:21:02;24.33;;;21.25;;
77890;SDS011;67084;43.624;3.876;2024-01-16T07:23:29;21.55;;;19.38;;
77890;SDS011;67084;43.624;3.876;2024-01-16T07:25:55;21.80;;;17.98;;
77890;SDS011;67084;43.624;3.876;2024-01-16T07:28:21;19.75;;;17.65;;
77890;SDS011;67084;43.624;3.876;2024-01-16T07:30:47;20.45;;;18.27;;
77890;SDS011;67084;43.624;3.876;2024-01-16T07:33:14;18.85;;;16.95;;
77890;SDS011;67084;43.624;3.876;2024-01-16T07:35:40;22.17;;;19.80;;
77890;SDS011;67084;43.624;3.876;2024-01-16T07:38:06;21.52;;;18.52;;
77890;SDS011;67084;43.624;3.876;2024-01-16T07:40:33;21.45;;;19.10;;
77890;SDS011;67084;43.624;3.876;2024-01-16T07:42:59;17.60;;;15.48;;
77890;SDS011;67084;43.624;3.876;2024-01-16T07:45:25;19.10;;;17.05;;
77890;SDS011;67084;43.624;3.876;2024-01-16T07:47:51;15.63;;;11.70;;
77890;SDS011;67084;43.624;3.876;2024-01-16T07:50:17;19.63;;;17.52;;
77890;SDS011;67084;43.624;3.876;2024-01-16T07:52:43;14.25;;;11.57;;
77890;SDS011;67084;43.624;3.876;2024-01-16T07:55:09;18.45;;;16.55;;
77890;SDS011;67084;43.624;3.876;2024-01-16T07:57:35;16.80;;;12.15;;
77890;SDS011;67084;43.624;3.876;2024-01-16T08:00:01;18.05;;;12.25;;
77890;SDS011;67084;43.624;3.876;2024-01-16T08:02:31;15.82;;;12.75;;
77890;SDS011;67084;43.624;3.876;2024-01-16T08:04:58;21.63;;;19.35;;
77890;SDS011;67084;43.624;3.876;2024-01-16T08:07:24;22.48;;;20.27;;
77890;SDS011;67084;43.624;3.876;2024-01-16T08:09:50;19.75;;;17.73;;
77890;SDS011;67084;43.624;3.876;2024-01-16T08:12:16;19.63;;;17.70;;
77890;SDS011;67084;43.624;3.876;2024-01-16T08:14:42;22.02;;;19.88;;
77890;SDS011;67084;43.624;3.876;2024-01-16T08:17:09;17.38;;;11.07;;
77890;SDS011;67084;43.624;3.876;2024-01-16T08:19:35;18.25;;;13.43;;
77890;SDS011;67084;43.624;3.876;2024-01-16T08:22:01;20.77;;;18.08;;
77890;SDS011;67084;43.624;3.876;2024-01-16T08:24:27;23.48;;;20.98;;
77890;SDS011;67084;43.624;3.876;2024-01-16T08:26:53;21.95;;;19.33;;
77890;SDS011;67084;43.624;3.876;2024-01-16T08:29:22;25.50;;;22.90;;
77890;SDS011;67084;43.624;3.876;2024-01-16T08:31:48;23.55;;;20.80;;
77890;SDS011;67084;43.624;3.876;2024-01-16T08:34:14;22.40;;;20.00;;
77890;SDS011;67084;43.624;3.876;2024-01-16T08:36:40;23.92;;;21.35;;
77890;SDS011;67084;43.624;3.876;2024-01-16T08:39:06;21.55;;;17.95;;
77890;SDS011;67084;43.624;3.876;2024-01-16T08:41:32;21.67;;;18.38;;
77890;SDS011;67084;43.624;3.876;2024-01-16T08:43:58;23.52;;;20.58;;
77890;SDS011;67084;43.624;3.876;2024-01-16T08:46:24;25.52;;;22.25;;
77890;SDS011;67084;43.624;3.876;2024-01-16T08:48:50;32.08;;;24.63;;
77890;SDS011;67084;43.624;3.876;2024-01-16T08:51:16;29.60;;;23.33;;
77890;SDS011;67084;43.624;3.876;2024-01-16T08:53:42;24.95;;;21.42;;
77890;SDS011;67084;43.624;3.876;2024-01-16T08:56:08;18.52;;;12.63;;
77890;SDS011;67084;43.624;3.876;2024-01-16T08:58:37;22.63;;;19.70;;
77890;SDS011;67084;43.624;3.876;2024-01-16T09:01:03;23.60;;;15.05;;
77890;SDS011;67084;43.624;3.876;2024-01-16T09:03:33;24.60;;;20.45;;
77890;SDS011;67084;43.624;3.876;2024-01-16T09:05:59;23.48;;;19.88;;
77890;SDS011;67084;43.624;3.876;2024-01-16T09:08:26;27.70;;;22.92;;
77890;SDS011;67084;43.624;3.876;2024-01-16T09:10:53;24.45;;;20.65;;
77890;SDS011;67084;43.624;3.876;2024-01-16T09:13:19;21.27;;;15.20;;
77890;SDS011;67084;43.624;3.876;2024-01-16T09:15:45;24.05;;;21.15;;
77890;SDS011;67084;43.624;3.876;2024-01-16T09:18:12;22.98;;;19.77;;
77890;SDS011;67084;43.624;3.876;2024-01-16T09:20:38;22.15;;;19.88;;
77890;SDS011;67084;43.624;3.876;2024-01-16T09:23:04;21.92;;;19.65;;
77890;SDS011;67084;43.624;3.876;2024-01-16T09:25:30;21.90;;;19.70;;
77890;SDS011;67084;43.624;3.876;2024-01-16T09:27:56;22.13;;;19.73;;
77890;SDS011;67084;43.624;3.876;2024-01-16T09:30:22;24.67;;;22.17;;
77890;SDS011;67084;43.624;3.876;2024-01-16T09:32:49;24.38;;;21.85;;
77890;SDS011;67084;43.624;3.876;2024-01-16T09:35:15;22.35;;;19.95;;
77890;SDS011;67084;43.624;3.876;2024-01-16T09:37:41;19.65;;;17.58;;
77890;SDS011;67084;43.624;3.876;2024-01-16T09:40:07;17.95;;;13.18;;
77890;SDS011;67084;43.624;3.876;2024-01-16T09:42:33;22.75;;;20.48;;
77890;SDS011;67084;43.624;3.876;2024-01-16T09:45:03;19.88;;;17.55;;
77890;SDS011;67084;43.624;3.876;2024-01-16T09:47:32;20.10;;;17.92;;
77890;SDS011;67084;43.624;3.876;2024-01-16T09:49:59;18.08;;;14.27;;
77890;SDS011;67084;43.624;3.876;2024-01-16T09:52:27;22.15;;;19.85;;
77890;SDS011;67084;43.624;3.876;2024-01-16T09:54:53;23.30;;;20.90;;
77890;SDS011;67084;43.624;3.876;2024-01-16T09:57:19;23.35;;;19.48;;
77890;SDS011;67084;43.624;3.876;2024-01-16T09:59:47;22.83;;;19.45;;
77890;SDS011;67084;43.624;3.876;2024-01-16T10:02:14;22.77;;;20.38;;
77890;SDS011;67084;43.624;3.876;2024-01-16T10:04:42;22.90;;;18.98;;
77890;SDS011;67084;43.624;3.876;2024-01-16T10:07:09;24.48;;;21.13;;
77890;SDS011;67084;43.624;3.876;2024-01-16T10:09:36;23.88;;;20.85;;
77890;SDS011;67084;43.624;3.876;2024-01-16T10:14:29;26.00;;;23.30;;
77890;SDS011;67084;43.624;3.876;2024-01-16T10:16:56;22.02;;;19.55;;
77890;SDS011;67084;43.624;3.876;2024-01-16T10:19:23;25.63;;;22.55;;
77890;SDS011;67084;43.624;3.876;2024-01-16T10:21:50;23.42;;;20.92;;
77890;SDS011;67084;43.624;3.876;2024-01-16T10:24:16;22.67;;;20.27;;
77890;SDS011;67084;43.624;3.876;2024-01-16T10:26:42;22.08;;;19.67;;
77890;SDS011;67084;43.624;3.876;2024-01-16T10:29:08;25.60;;;23.08;;
77890;SDS011;67084;43.624;3.876;2024-01-16T10:31:34;22.80;;;20.33;;
77890;SDS011;67084;43.624;3.876;2024-01-16T10:34:04;21.65;;;19.35;;
77890;SDS011;67084;43.624;3.876;2024-01-16T10:36:45;20.80;;;17.38;;
77890;SDS011;67084;43.624;3.876;2024-01-16T10:39:11;23.38;;;20.88;;
77890;SDS011;67084;43.624;3.876;2024-01-16T10:41:37;23.60;;;19.75;;
77890;SDS011;67084;43.624;3.876;2024-01-16T10:44:03;23.25;;;20.05;;
77890;SDS011;67084;43.624;3.876;2024-01-16T10:46:29;24.33;;;21.27;;
77890;SDS011;67084;43.624;3.876;2024-01-16T10:48:59;20.38;;;15.20;;
77890;SDS011;67084;43.624;3.876;2024-01-16T10:51:26;25.75;;;23.02;;
77890;SDS011;67084;43.624;3.876;2024-01-16T10:53:58;23.35;;;20.38;;
77890;SDS011;67084;43.624;3.876;2024-01-16T10:56:25;25.08;;;22.38;;
77890;SDS011;67084;43.624;3.876;2024-01-16T10:58:57;24.02;;;20.50;;
77890;SDS011;67084;43.624;3.876;2024-01-16T11:01:27;21.13;;;18.27;;
77890;SDS011;67084;43.624;3.876;2024-01-16T11:03:54;23.05;;;20.58;;
77890;SDS011;67084;43.624;3.876;2024-01-16T11:06:22;25.90;;;21.13;;
77890;SDS011;67084;43.624;3.876;2024-01-16T11:08:48;23.63;;;21.08;;
77890;SDS011;67084;43.624;3.876;2024-01-16T11:11:15;26.08;;;22.80;;
77890;SDS011;67084;43.624;3.876;2024-01-16T11:13:42;22.38;;;16.85;;
77890;SDS011;67084;43.624;3.876;2024-01-16T11:16:12;24.67;;;22.00;;
77890;SDS011;67084;43.624;3.876;2024-01-16T11:18:38;25.10;;;21.98;;
77890;SDS011;67084;43.624;3.876;2024-01-16T11:21:06;24.17;;;17.42;;
77890;SDS011;67084;43.624;3.876;2024-01-16T11:23:33;23.52;;;20.63;;
77890;SDS011;67084;43.624;3.876;2024-01-16T11:26:00;21.10;;;18.83;;
77890;SDS011;67084;43.624;3.876;2024-01-16T11:28:29;22.13;;;19.40;;
77890;SDS011;67084;43.624;3.876;2024-01-16T11:30:55;21.35;;;19.05;;
77890;SDS011;67084;43.624;3.876;2024-01-16T11:33:42;22.25;;;18.88;;
77890;SDS011;67084;43.624;3.876;2024-01-16T11:36:32;25.45;;;22.95;;
77890;SDS011;67084;43.624;3.876;2024-01-16T11:38:55;23.73;;;19.27;;
77890;SDS011;67084;43.624;3.876;2024-01-16T11:44:07;23.55;;;21.05;;
77890;SDS011;67084;43.624;3.876;2024-01-16T11:49:23;23.10;;;20.65;;
77890;SDS011;67084;43.624;3.876;2024-01-16T11:51:49;24.70;;;22.05;;
77890;SDS011;67084;43.624;3.876;2024-01-16T11:54:15;20.38;;;14.45;;
77890;SDS011;67084;43.624;3.876;2024-01-16T12:02:12;21.05;;;18.65;;
77890;SDS011;67084;43.624;3.876;2024-01-16T12:04:40;24.65;;;22.15;;
77890;SDS011;67084;43.624;3.876;2024-01-16T12:07:07;22.88;;;20.48;;
77890;SDS011;67084;43.624;3.876;2024-01-16T12:09:33;22.73;;;20.42;;
77890;SDS011;67084;43.624;3.876;2024-01-16T12:12:00;23.10;;;20.15;;
77890;SDS011;67084;43.624;3.876;2024-01-16T12:14:26;23.10;;;19.95;;
77890;SDS011;67084;43.624;3.876;2024-01-16T12:16:52;22.27;;;19.98;;
77890;SDS011;67084;43.624;3.876;2024-01-16T12:19:19;23.15;;;20.25;;
77890;SDS011;67084;43.624;3.876;2024-01-16T12:21:45;18.60;;;13.65;;
77890;SDS011;67084;43.624;3.876;2024-01-16T12:24:11;23.60;;;19.55;;
77890;SDS011;67084;43.624;3.876;2024-01-16T12:26:38;18.08;;;13.45;;
77890;SDS011;67084;43.624;3.876;2024-01-16T12:29:06;19.05;;;14.05;;
77890;SDS011;67084;43.624;3.876;2024-01-16T12:31:33;22.90;;;19.10;;
77890;SDS011;67084;43.624;3.876;2024-01-16T12:36:35;21.50;;;18.73;;
77890;SDS011;67084;43.624;3.876;2024-01-16T12:39:01;20.98;;;18.48;;
77890;SDS011;67084;43.624;3.876;2024-01-16T12:41:28;23.55;;;18.63;;
77890;SDS011;67084;43.624;3.876;2024-01-16T12:43:56;21.02;;;18.85;;
77890;SDS011;67084;43.624;3.876;2024-01-16T12:46:22;18.80;;;16.35;;
77890;SDS011;67084;43.624;3.876;2024-01-16T12:48:48;23.95;;;21.48;;
77890;SDS011;67084;43.624;3.876;2024-01-16T12:51:20;25.30;;;21.13;;
77890;SDS011;67084;43.624;3.876;2024-01-16T12:53:49;21.25;;;19.00;;
77890;SDS011;67084;43.624;3.876;2024-01-16T12:56:18;22.85;;;20.52;;
77890;SDS011;67084;43.624;3.876;2024-01-16T12:58:44;22.02;;;19.73;;
77890;SDS011;67084;43.624;3.876;2024-01-16T13:04:09;23.15;;;20.75;;
77890;SDS011;67084;43.624;3.876;2024-01-16T13:06:36;22.23;;;19.73;;
77890;SDS011;67084;43.624;3.876;2024-01-16T13:09:06;19.85;;;14.35;;
77890;SDS011;67084;43.624;3.876;2024-01-16T13:11:48;22.90;;;19.35;;
77890;SDS011;67084;43.624;3.876;2024-01-16T13:14:16;22.88;;;20.20;;
77890;SDS011;67084;43.624;3.876;2024-01-16T13:16:42;21.17;;;18.88;;
77890;SDS011;67084;43.624;3.876;2024-01-16T13:19:08;21.05;;;18.80;;
77890;SDS011;67084;43.624;3.876;2024-01-16T13:21:36;24.08;;;20.52;;
77890;SDS011;67084;43.624;3.876;2024-01-16T13:24:06;23.48;;;20.20;;
77890;SDS011;67084;43.624;3.876;2024-01-16T13:26:33;28.35;;;23.33;;
77890;SDS011;67084;43.624;3.876;2024-01-16T13:28:59;26.88;;;23.80;;
77890;SDS011;67084;43.624;3.876;2024-01-16T13:31:25;34.50;;;27.40;;
77890;SDS011;67084;43.624;3.876;2024-01-16T13:33:52;28.10;;;23.95;;
77890;SDS011;67084;43.624;3.876;2024-01-16T13:36:18;27.23;;;22.92;;
77890;SDS011;67084;43.624;3.876;2024-01-16T13:38:45;28.10;;;22.77;;
77890;SDS011;67084;43.624;3.876;2024-01-16T13:41:11;29.65;;;23.80;;
77890;SDS011;67084;43.624;3.876;2024-01-16T13:43:37;26.70;;;21.75;;
77890;SDS011;67084;43.624;3.876;2024-01-16T13:46:03;26.55;;;18.70;;
77890;SDS011;67084;43.624;3.876;2024-01-16T13:48:29;27.35;;;22.98;;
77890;SDS011;67084;43.624;3.876;2024-01-16T13:50:55;28.65;;;23.52;;
77890;SDS011;67084;43.624;3.876;2024-01-16T13:53:21;31.60;;;24.67;;
77890;SDS011;67084;43.624;3.876;2024-01-16T13:55:48;32.92;;;24.85;;
77890;SDS011;67084;43.624;3.876;2024-01-16T13:58:14;32.38;;;26.63;;
77890;SDS011;67084;43.624;3.876;2024-01-16T14:00:40;33.50;;;24.75;;
77890;SDS011;67084;43.624;3.876;2024-01-16T14:03:06;32.58;;;26.63;;
77890;SDS011;67084;43.624;3.876;2024-01-16T14:05:32;30.98;;;26.70;;
77890;SDS011;67084;43.624;3.876;2024-01-16T14:07:58;34.28;;;27.70;;
77890;SDS011;67084;43.624;3.876;2024-01-16T14:10:24;36.08;;;28.23;;
77890;SDS011;67084;43.624;3.876;2024-01-16T14:12:50;37.80;;;27.98;;
77890;SDS011;67084;43.624;3.876;2024-01-16T14:15:17;35.70;;;27.58;;
77890;SDS011;67084;43.624;3.876;2024-01-16T14:17:45;33.97;;;26.63;;
77890;SDS011;67084;43.624;3.876;2024-01-16T14:20:12;38.38;;;32.30;;
77890;SDS011;67084;43.624;3.876;2024-01-16T14:22:39;36.72;;;28.55;;
77890;SDS011;67084;43.624;3.876;2024-01-16T14:25:11;32.92;;;27.00;;
77890;SDS011;67084;43.624;3.876;2024-01-16T14:30:06;33.65;;;28.35;;
77890;SDS011;67084;43.624;3.876;2024-01-16T14:32:32;32.25;;;26.83;;
77890;SDS011;67084;43.624;3.876;2024-01-16T14:34:58;31.80;;;27.40;;
77890;SDS011;67084;43.624;3.876;2024-01-16T14:37:25;35.67;;;27.95;;
77890;SDS011;67084;43.624;3.876;2024-01-16T14:39:52;34.85;;;27.70;;
77890;SDS011;67084;43.624;3.876;2024-01-16T14:42:18;32.28;;;24.27;;